sensor_id;sensor_type;location;lat;lon;timestamp;temperature;humidity
75190;HTU21D;69198;44.694;37.790;2024-02-26T00:00:43;7.58;56.83
75190;HTU21D;69198;44.694;37.790;2024-02-26T00:01:44;7.58;56.76
75190;HTU21D;69198;44.694;37.790;2024-02-26T00:02:45;7.55;56.79
75190;HTU21D;69198;44.694;37.790;2024-02-26T00:03:46;7.48;56.81
75190;HTU21D;69198;44.694;37.790;2024-02-26T00:04:48;7.45;56.85
75190;HTU21D;69198;44.694;37.790;2024-02-26T00:05:49;7.38;56.92
75190;HTU21D;69198;44.694;37.790;2024-02-26T00:06:50;7.35;56.92
75190;HTU21D;69198;44.694;37.790;2024-02-26T00:07:52;7.32;56.87
75190;HTU21D;69198;44.694;37.790;2024-02-26T00:08:53;7.30;56.85
75190;HTU21D;69198;44.694;37.790;2024-02-26T00:09:54;7.26;56.81
75190;HTU21D;69198;44.694;37.790;2024-02-26T00:10:55;7.25;56.81
75190;HTU21D;69198;44.694;37.790;2024-02-26T00:11:56;7.24;56.84
75190;HTU21D;69198;44.694;37.790;2024-02-26T00:12:58;7.22;56.84
75190;HTU21D;69198;44.694;37.790;2024-02-26T00:13:59;7.19;56.84
75190;HTU21D;69198;44.694;37.790;2024-02-26T00:15:00;7.19;56.80
75190;HTU21D;69198;44.694;37.790;2024-02-26T00:16:03;7.19;56.76
75190;HTU21D;69198;44.694;37.790;2024-02-26T00:17:04;7.17;56.85
75190;HTU21D;69198;44.694;37.790;2024-02-26T00:18:05;7.15;56.91
75190;HTU21D;69198;44.694;37.790;2024-02-26T00:19:06;7.17;56.97
75190;HTU21D;69198;44.694;37.790;2024-02-26T00:20:08;7.20;56.93
75190;HTU21D;69198;44.694;37.790;2024-02-26T00:21:12;7.27;56.90
75190;HTU21D;69198;44.694;37.790;2024-02-26T00:22:13;7.32;56.84
75190;HTU21D;69198;44.694;37.790;2024-02-26T00:23:17;7.43;56.71
75190;HTU21D;69198;44.694;37.790;2024-02-26T00:24:18;7.48;56.55
75190;HTU21D;69198;44.694;37.790;2024-02-26T00:25:19;7.50;56.52
75190;HTU21D;69198;44.694;37.790;2024-02-26T00:26:20;7.47;56.53
75190;HTU21D;69198;44.694;37.790;2024-02-26T00:27:21;7.44;56.57
75190;HTU21D;69198;44.694;37.790;2024-02-26T00:28:22;7.42;56.61
75190;HTU21D;69198;44.694;37.790;2024-02-26T00:29:23;7.41;56.66
75190;HTU21D;69198;44.694;37.790;2024-02-26T00:30:25;7.43;56.64
75190;HTU21D;69198;44.694;37.790;2024-02-26T00:31:26;7.43;56.62
75190;HTU21D;69198;44.694;37.790;2024-02-26T00:32:27;7.44;56.59
75190;HTU21D;69198;44.694;37.790;2024-02-26T00:33:28;7.42;56.58
75190;HTU21D;69198;44.694;37.790;2024-02-26T00:34:29;7.40;56.61
75190;HTU21D;69198;44.694;37.790;2024-02-26T00:35:31;7.41;56.64
75190;HTU21D;69198;44.694;37.790;2024-02-26T00:36:32;7.43;56.59
75190;HTU21D;69198;44.694;37.790;2024-02-26T00:37:33;7.47;56.55
75190;HTU21D;69198;44.694;37.790;2024-02-26T00:38:35;7.52;56.47
75190;HTU21D;69198;44.694;37.790;2024-02-26T00:39:36;7.56;56.37
75190;HTU21D;69198;44.694;37.790;2024-02-26T00:40:38;7.58;56.29
75190;HTU21D;69198;44.694;37.790;2024-02-26T00:41:41;7.61;56.19
75190;HTU21D;69198;44.694;37.790;2024-02-26T00:42:43;7.61;56.10
75190;HTU21D;69198;44.694;37.790;2024-02-26T00:43:46;7.63;56.03
75190;HTU21D;69198;44.694;37.790;2024-02-26T00:44:48;7.64;56.00
75190;HTU21D;69198;44.694;37.790;2024-02-26T00:45:49;7.67;55.94
75190;HTU21D;69198;44.694;37.790;2024-02-26T00:46:50;7.68;55.87
75190;HTU21D;69198;44.694;37.790;2024-02-26T00:47:51;7.69;55.78
75190;HTU21D;69198;44.694;37.790;2024-02-26T00:48:52;7.68;55.76
75190;HTU21D;69198;44.694;37.790;2024-02-26T00:49:54;7.67;55.76
75190;HTU21D;69198;44.694;37.790;2024-02-26T00:50:55;7.65;55.71
75190;HTU21D;69198;44.694;37.790;2024-02-26T00:51:56;7.62;55.73
75190;HTU21D;69198;44.694;37.790;2024-02-26T00:52:57;7.61;55.73
75190;HTU21D;69198;44.694;37.790;2024-02-26T00:53:58;7.63;55.69
75190;HTU21D;69198;44.694;37.790;2024-02-26T00:54:59;7.63;55.65
75190;HTU21D;69198;44.694;37.790;2024-02-26T00:56:00;7.64;55.60
75190;HTU21D;69198;44.694;37.790;2024-02-26T00:57:02;7.65;55.52
75190;HTU21D;69198;44.694;37.790;2024-02-26T00:58:03;7.68;55.48
75190;HTU21D;69198;44.694;37.790;2024-02-26T00:59:04;7.68;55.42
75190;HTU21D;69198;44.694;37.790;2024-02-26T01:00:06;7.70;55.38
75190;HTU21D;69198;44.694;37.790;2024-02-26T01:01:09;7.71;55.36
75190;HTU21D;69198;44.694;37.790;2024-02-26T01:02:10;7.73;55.31
75190;HTU21D;69198;44.694;37.790;2024-02-26T01:03:11;7.72;55.26
75190;HTU21D;69198;44.694;37.790;2024-02-26T01:04:12;7.73;55.20
75190;HTU21D;69198;44.694;37.790;2024-02-26T01:05:14;7.74;55.19
75190;HTU21D;69198;44.694;37.790;2024-02-26T01:06:15;7.73;55.16
75190;HTU21D;69198;44.694;37.790;2024-02-26T01:07:16;7.77;55.08
75190;HTU21D;69198;44.694;37.790;2024-02-26T01:08:17;7.81;54.97
75190;HTU21D;69198;44.694;37.790;2024-02-26T01:09:18;7.87;54.83
75190;HTU21D;69198;44.694;37.790;2024-02-26T01:10:19;7.92;54.71
75190;HTU21D;69198;44.694;37.790;2024-02-26T01:11:20;7.96;54.59
75190;HTU21D;69198;44.694;37.790;2024-02-26T01:12:21;7.99;54.47
75190;HTU21D;69198;44.694;37.790;2024-02-26T01:13:23;8.01;54.40
75190;HTU21D;69198;44.694;37.790;2024-02-26T01:14:24;8.03;54.30
75190;HTU21D;69198;44.694;37.790;2024-02-26T01:15:25;8.05;54.16
75190;HTU21D;69198;44.694;37.790;2024-02-26T01:16:27;8.06;54.09
75190;HTU21D;69198;44.694;37.790;2024-02-26T01:17:29;8.06;54.03
75190;HTU21D;69198;44.694;37.790;2024-02-26T01:18:31;8.04;53.97
75190;HTU21D;69198;44.694;37.790;2024-02-26T01:19:32;8.04;53.97
75190;HTU21D;69198;44.694;37.790;2024-02-26T01:20:33;8.01;53.97
75190;HTU21D;69198;44.694;37.790;2024-02-26T01:21:34;7.97;53.91
75190;HTU21D;69198;44.694;37.790;2024-02-26T01:22:35;7.94;53.98
75190;HTU21D;69198;44.694;37.790;2024-02-26T01:23:36;7.91;53.94
75190;HTU21D;69198;44.694;37.790;2024-02-26T01:24:37;7.90;53.91
75190;HTU21D;69198;44.694;37.790;2024-02-26T01:25:38;7.90;53.88
75190;HTU21D;69198;44.694;37.790;2024-02-26T01:26:40;7.89;53.83
75190;HTU21D;69198;44.694;37.790;2024-02-26T01:27:41;7.90;53.75
75190;HTU21D;69198;44.694;37.790;2024-02-26T01:28:43;7.89;53.69
75190;HTU21D;69198;44.694;37.790;2024-02-26T01:29:45;7.89;53.69
75190;HTU21D;69198;44.694;37.790;2024-02-26T01:30:46;7.88;53.68
75190;HTU21D;69198;44.694;37.790;2024-02-26T01:31:47;7.88;53.65
75190;HTU21D;69198;44.694;37.790;2024-02-26T01:32:47;7.86;53.62
75190;HTU21D;69198;44.694;37.790;2024-02-26T01:33:49;7.84;53.62
75190;HTU21D;69198;44.694;37.790;2024-02-26T01:34:50;7.79;53.61
75190;HTU21D;69198;44.694;37.790;2024-02-26T01:35:51;7.75;53.62
75190;HTU21D;69198;44.694;37.790;2024-02-26T01:36:52;7.70;53.70
75190;HTU21D;69198;44.694;37.790;2024-02-26T01:37:53;7.64;53.75
75190;HTU21D;69198;44.694;37.790;2024-02-26T01:38:54;7.60;53.84
75190;HTU21D;69198;44.694;37.790;2024-02-26T01:39:55;7.58;53.91
75190;HTU21D;69198;44.694;37.790;2024-02-26T01:40:56;7.55;53.95
75190;HTU21D;69198;44.694;37.790;2024-02-26T01:41:58;7.52;54.04
75190;HTU21D;69198;44.694;37.790;2024-02-26T01:42:59;7.50;54.09
75190;HTU21D;69198;44.694;37.790;2024-02-26T01:44:01;7.49;54.10
75190;HTU21D;69198;44.694;37.790;2024-02-26T01:45:03;7.47;54.15
75190;HTU21D;69198;44.694;37.790;2024-02-26T01:46:04;7.53;54.12
75190;HTU21D;69198;44.694;37.790;2024-02-26T01:47:07;7.56;54.04
75190;HTU21D;69198;44.694;37.790;2024-02-26T01:48:10;7.62;53.92
75190;HTU21D;69198;44.694;37.790;2024-02-26T01:49:12;7.69;53.78
75190;HTU21D;69198;44.694;37.790;2024-02-26T01:50:14;7.74;53.60
75190;HTU21D;69198;44.694;37.790;2024-02-26T01:51:16;7.76;53.49
75190;HTU21D;69198;44.694;37.790;2024-02-26T01:52:18;7.82;53.38
75190;HTU21D;69198;44.694;37.790;2024-02-26T01:53:20;7.84;53.31
75190;HTU21D;69198;44.694;37.790;2024-02-26T01:54:21;7.83;53.26
75190;HTU21D;69198;44.694;37.790;2024-02-26T01:55:23;7.83;53.23
75190;HTU21D;69198;44.694;37.790;2024-02-26T01:56:25;7.82;53.17
75190;HTU21D;69198;44.694;37.790;2024-02-26T01:57:31;7.85;53.17
75190;HTU21D;69198;44.694;37.790;2024-02-26T01:58:32;7.88;53.08
75190;HTU21D;69198;44.694;37.790;2024-02-26T01:59:35;7.89;53.09
75190;HTU21D;69198;44.694;37.790;2024-02-26T02:00:37;7.91;53.03
75190;HTU21D;69198;44.694;37.790;2024-02-26T02:01:42;7.91;52.96
75190;HTU21D;69198;44.694;37.790;2024-02-26T02:02:45;7.92;52.98
75190;HTU21D;69198;44.694;37.790;2024-02-26T02:03:48;7.99;52.81
75190;HTU21D;69198;44.694;37.790;2024-02-26T02:04:49;8.03;52.63
75190;HTU21D;69198;44.694;37.790;2024-02-26T02:05:51;8.06;52.54
75190;HTU21D;69198;44.694;37.790;2024-02-26T02:06:52;8.06;52.52
75190;HTU21D;69198;44.694;37.790;2024-02-26T02:07:53;8.08;52.43
75190;HTU21D;69198;44.694;37.790;2024-02-26T02:08:55;8.06;52.53
75190;HTU21D;69198;44.694;37.790;2024-02-26T02:09:56;8.02;52.76
75190;HTU21D;69198;44.694;37.790;2024-02-26T02:10:57;7.96;53.03
75190;HTU21D;69198;44.694;37.790;2024-02-26T02:11:59;7.89;53.51
75190;HTU21D;69198;44.694;37.790;2024-02-26T02:13:01;7.81;53.60
75190;HTU21D;69198;44.694;37.790;2024-02-26T02:14:02;7.78;53.52
75190;HTU21D;69198;44.694;37.790;2024-02-26T02:15:03;7.77;53.40
75190;HTU21D;69198;44.694;37.790;2024-02-26T02:16:05;7.78;53.20
75190;HTU21D;69198;44.694;37.790;2024-02-26T02:17:06;7.81;53.12
75190;HTU21D;69198;44.694;37.790;2024-02-26T02:18:07;7.79;53.29
75190;HTU21D;69198;44.694;37.790;2024-02-26T02:19:08;7.75;53.60
75190;HTU21D;69198;44.694;37.790;2024-02-26T02:20:14;7.71;53.60
75190;HTU21D;69198;44.694;37.790;2024-02-26T02:21:16;7.67;53.55
75190;HTU21D;69198;44.694;37.790;2024-02-26T02:22:17;7.68;53.45
75190;HTU21D;69198;44.694;37.790;2024-02-26T02:23:18;7.67;53.52
75190;HTU21D;69198;44.694;37.790;2024-02-26T02:24:20;7.62;53.66
75190;HTU21D;69198;44.694;37.790;2024-02-26T02:25:21;7.61;53.71
75190;HTU21D;69198;44.694;37.790;2024-02-26T02:26:22;7.63;53.52
75190;HTU21D;69198;44.694;37.790;2024-02-26T02:27:23;7.64;53.41
75190;HTU21D;69198;44.694;37.790;2024-02-26T02:28:26;7.68;53.30
75190;HTU21D;69198;44.694;37.790;2024-02-26T02:29:28;7.71;53.14
75190;HTU21D;69198;44.694;37.790;2024-02-26T02:30:30;7.74;53.08
75190;HTU21D;69198;44.694;37.790;2024-02-26T02:31:32;7.82;52.93
75190;HTU21D;69198;44.694;37.790;2024-02-26T02:32:33;7.83;52.85
75190;HTU21D;69198;44.694;37.790;2024-02-26T02:33:34;7.83;52.82
75190;HTU21D;69198;44.694;37.790;2024-02-26T02:34:36;7.79;52.77
75190;HTU21D;69198;44.694;37.790;2024-02-26T02:35:37;7.81;52.80
75190;HTU21D;69198;44.694;37.790;2024-02-26T02:36:58;7.85;52.81
75190;HTU21D;69198;44.694;37.790;2024-02-26T02:38:00;7.78;52.85
75190;HTU21D;69198;44.694;37.790;2024-02-26T02:39:01;7.77;52.94
75190;HTU21D;69198;44.694;37.790;2024-02-26T02:40:02;7.74;52.94
75190;HTU21D;69198;44.694;37.790;2024-02-26T02:41:04;7.73;52.88
75190;HTU21D;69198;44.694;37.790;2024-02-26T02:42:05;7.72;52.89
75190;HTU21D;69198;44.694;37.790;2024-02-26T02:43:06;7.73;52.83
75190;HTU21D;69198;44.694;37.790;2024-02-26T02:44:08;7.74;52.79
75190;HTU21D;69198;44.694;37.790;2024-02-26T02:45:09;7.76;52.77
75190;HTU21D;69198;44.694;37.790;2024-02-26T02:46:10;7.79;52.68
75190;HTU21D;69198;44.694;37.790;2024-02-26T02:47:14;7.83;52.64
75190;HTU21D;69198;44.694;37.790;2024-02-26T02:48:15;7.90;52.50
75190;HTU21D;69198;44.694;37.790;2024-02-26T02:49:16;8.00;52.29
75190;HTU21D;69198;44.694;37.790;2024-02-26T02:50:17;8.08;52.09
75190;HTU21D;69198;44.694;37.790;2024-02-26T02:51:18;8.16;51.95
75190;HTU21D;69198;44.694;37.790;2024-02-26T02:52:20;8.24;51.81
75190;HTU21D;69198;44.694;37.790;2024-02-26T02:53:21;8.28;51.69
75190;HTU21D;69198;44.694;37.790;2024-02-26T02:54:22;8.30;51.65
75190;HTU21D;69198;44.694;37.790;2024-02-26T02:55:23;8.29;51.91
75190;HTU21D;69198;44.694;37.790;2024-02-26T02:56:24;8.21;52.23
75190;HTU21D;69198;44.694;37.790;2024-02-26T02:57:25;8.12;52.41
75190;HTU21D;69198;44.694;37.790;2024-02-26T02:58:26;8.03;52.44
75190;HTU21D;69198;44.694;37.790;2024-02-26T02:59:27;7.94;52.43
75190;HTU21D;69198;44.694;37.790;2024-02-26T03:00:28;7.91;52.33
75190;HTU21D;69198;44.694;37.790;2024-02-26T03:01:29;7.89;52.45
75190;HTU21D;69198;44.694;37.790;2024-02-26T03:02:31;7.84;52.67
75190;HTU21D;69198;44.694;37.790;2024-02-26T03:03:31;7.78;52.85
75190;HTU21D;69198;44.694;37.790;2024-02-26T03:04:33;7.73;53.06
75190;HTU21D;69198;44.694;37.790;2024-02-26T03:05:34;7.69;53.21
75190;HTU21D;69198;44.694;37.790;2024-02-26T03:06:35;7.63;53.27
75190;HTU21D;69198;44.694;37.790;2024-02-26T03:07:36;7.56;53.37
75190;HTU21D;69198;44.694;37.790;2024-02-26T03:08:37;7.47;53.48
75190;HTU21D;69198;44.694;37.790;2024-02-26T03:09:40;7.42;53.53
75190;HTU21D;69198;44.694;37.790;2024-02-26T03:10:41;7.39;53.53
75190;HTU21D;69198;44.694;37.790;2024-02-26T03:11:44;7.35;53.54
75190;HTU21D;69198;44.694;37.790;2024-02-26T03:12:45;7.33;53.59
75190;HTU21D;69198;44.694;37.790;2024-02-26T03:13:46;7.32;53.72
75190;HTU21D;69198;44.694;37.790;2024-02-26T03:14:48;7.35;53.72
75190;HTU21D;69198;44.694;37.790;2024-02-26T03:15:49;7.37;53.63
75190;HTU21D;69198;44.694;37.790;2024-02-26T03:16:53;7.37;53.52
75190;HTU21D;69198;44.694;37.790;2024-02-26T03:17:55;7.38;53.49
75190;HTU21D;69198;44.694;37.790;2024-02-26T03:18:56;7.39;53.42
75190;HTU21D;69198;44.694;37.790;2024-02-26T03:19:57;7.39;53.33
75190;HTU21D;69198;44.694;37.790;2024-02-26T03:20:58;7.41;53.28
75190;HTU21D;69198;44.694;37.790;2024-02-26T03:21:59;7.42;53.30
75190;HTU21D;69198;44.694;37.790;2024-02-26T03:23:00;7.42;53.27
75190;HTU21D;69198;44.694;37.790;2024-02-26T03:24:01;7.43;53.25
75190;HTU21D;69198;44.694;37.790;2024-02-26T03:25:02;7.44;53.19
75190;HTU21D;69198;44.694;37.790;2024-02-26T03:26:04;7.50;53.14
75190;HTU21D;69198;44.694;37.790;2024-02-26T03:27:05;7.50;53.07
75190;HTU21D;69198;44.694;37.790;2024-02-26T03:28:09;7.48;53.05
75190;HTU21D;69198;44.694;37.790;2024-02-26T03:29:11;7.46;53.04
75190;HTU21D;69198;44.694;37.790;2024-02-26T03:30:15;7.45;53.05
75190;HTU21D;69198;44.694;37.790;2024-02-26T03:31:16;7.44;53.06
75190;HTU21D;69198;44.694;37.790;2024-02-26T03:32:17;7.46;53.04
75190;HTU21D;69198;44.694;37.790;2024-02-26T03:33:18;7.48;52.99
75190;HTU21D;69198;44.694;37.790;2024-02-26T03:34:19;7.48;52.91
75190;HTU21D;69198;44.694;37.790;2024-02-26T03:35:20;7.48;52.85
75190;HTU21D;69198;44.694;37.790;2024-02-26T03:36:21;7.49;52.80
75190;HTU21D;69198;44.694;37.790;2024-02-26T03:37:22;7.54;52.74
75190;HTU21D;69198;44.694;37.790;2024-02-26T03:38:23;7.56;52.65
75190;HTU21D;69198;44.694;37.790;2024-02-26T03:39:25;7.55;52.65
75190;HTU21D;69198;44.694;37.790;2024-02-26T03:40:26;7.53;52.66
75190;HTU21D;69198;44.694;37.790;2024-02-26T03:41:27;7.50;52.68
75190;HTU21D;69198;44.694;37.790;2024-02-26T03:42:28;7.48;52.68
75190;HTU21D;69198;44.694;37.790;2024-02-26T03:43:29;7.48;52.67
75190;HTU21D;69198;44.694;37.790;2024-02-26T03:44:30;7.50;52.61
75190;HTU21D;69198;44.694;37.790;2024-02-26T03:45:31;7.54;52.51
75190;HTU21D;69198;44.694;37.790;2024-02-26T03:46:32;7.59;52.38
75190;HTU21D;69198;44.694;37.790;2024-02-26T03:47:33;7.65;52.24
75190;HTU21D;69198;44.694;37.790;2024-02-26T03:48:34;7.74;52.11
75190;HTU21D;69198;44.694;37.790;2024-02-26T03:49:35;7.83;51.94
75190;HTU21D;69198;44.694;37.790;2024-02-26T03:50:36;7.90;51.80
75190;HTU21D;69198;44.694;37.790;2024-02-26T03:51:37;7.97;51.64
75190;HTU21D;69198;44.694;37.790;2024-02-26T03:52:38;8.01;51.50
75190;HTU21D;69198;44.694;37.790;2024-02-26T03:53:39;8.05;51.40
75190;HTU21D;69198;44.694;37.790;2024-02-26T03:54:40;8.11;51.30
75190;HTU21D;69198;44.694;37.790;2024-02-26T03:55:41;8.14;51.21
75190;HTU21D;69198;44.694;37.790;2024-02-26T03:56:43;8.17;51.11
75190;HTU21D;69198;44.694;37.790;2024-02-26T03:57:44;8.20;51.07
75190;HTU21D;69198;44.694;37.790;2024-02-26T03:58:45;8.22;51.04
75190;HTU21D;69198;44.694;37.790;2024-02-26T03:59:46;8.24;50.94
75190;HTU21D;69198;44.694;37.790;2024-02-26T04:00:47;8.23;50.93
75190;HTU21D;69198;44.694;37.790;2024-02-26T04:01:48;8.19;50.96
75190;HTU21D;69198;44.694;37.790;2024-02-26T04:02:50;8.16;51.04
75190;HTU21D;69198;44.694;37.790;2024-02-26T04:03:51;8.13;51.08
75190;HTU21D;69198;44.694;37.790;2024-02-26T04:04:53;8.09;51.13
75190;HTU21D;69198;44.694;37.790;2024-02-26T04:05:54;8.07;51.16
75190;HTU21D;69198;44.694;37.790;2024-02-26T04:06:55;8.05;51.18
75190;HTU21D;69198;44.694;37.790;2024-02-26T04:07:56;8.02;51.16
75190;HTU21D;69198;44.694;37.790;2024-02-26T04:08:57;8.01;51.13
75190;HTU21D;69198;44.694;37.790;2024-02-26T04:09:58;8.02;51.06
75190;HTU21D;69198;44.694;37.790;2024-02-26T04:10:59;8.02;50.95
75190;HTU21D;69198;44.694;37.790;2024-02-26T04:12:01;8.01;50.92
75190;HTU21D;69198;44.694;37.790;2024-02-26T04:13:02;8.01;50.91
75190;HTU21D;69198;44.694;37.790;2024-02-26T04:14:04;8.00;50.85
75190;HTU21D;69198;44.694;37.790;2024-02-26T04:15:07;8.02;50.79
75190;HTU21D;69198;44.694;37.790;2024-02-26T04:16:09;8.02;50.75
75190;HTU21D;69198;44.694;37.790;2024-02-26T04:17:10;8.03;50.77
75190;HTU21D;69198;44.694;37.790;2024-02-26T04:18:12;8.05;50.64
75190;HTU21D;69198;44.694;37.790;2024-02-26T04:19:13;8.08;50.57
75190;HTU21D;69198;44.694;37.790;2024-02-26T04:20:15;8.11;50.50
75190;HTU21D;69198;44.694;37.790;2024-02-26T04:21:19;8.13;50.48
75190;HTU21D;69198;44.694;37.790;2024-02-26T04:22:20;8.15;50.43
75190;HTU21D;69198;44.694;37.790;2024-02-26T04:23:21;8.19;50.35
75190;HTU21D;69198;44.694;37.790;2024-02-26T04:24:22;8.22;50.30
75190;HTU21D;69198;44.694;37.790;2024-02-26T04:25:23;8.29;50.11
75190;HTU21D;69198;44.694;37.790;2024-02-26T04:26:24;8.36;49.95
75190;HTU21D;69198;44.694;37.790;2024-02-26T04:27:25;8.45;49.92
75190;HTU21D;69198;44.694;37.790;2024-02-26T04:28:27;8.59;49.91
75190;HTU21D;69198;44.694;37.790;2024-02-26T04:29:29;8.75;49.69
75190;HTU21D;69198;44.694;37.790;2024-02-26T04:30:30;8.93;49.41
75190;HTU21D;69198;44.694;37.790;2024-02-26T04:31:31;9.15;49.14
75190;HTU21D;69198;44.694;37.790;2024-02-26T04:32:34;9.42;48.73
75190;HTU21D;69198;44.694;37.790;2024-02-26T04:33:35;9.72;48.27
75190;HTU21D;69198;44.694;37.790;2024-02-26T04:34:36;10.00;47.83
75190;HTU21D;69198;44.694;37.790;2024-02-26T04:35:37;10.29;47.35
75190;HTU21D;69198;44.694;37.790;2024-02-26T04:36:38;10.53;46.89
75190;HTU21D;69198;44.694;37.790;2024-02-26T04:37:39;10.70;46.57
75190;HTU21D;69198;44.694;37.790;2024-02-26T04:38:40;10.86;46.38
75190;HTU21D;69198;44.694;37.790;2024-02-26T04:39:41;11.01;46.17
75190;HTU21D;69198;44.694;37.790;2024-02-26T04:40:42;11.16;45.83
75190;HTU21D;69198;44.694;37.790;2024-02-26T04:41:43;11.36;45.57
75190;HTU21D;69198;44.694;37.790;2024-02-26T04:42:45;11.53;45.16
75190;HTU21D;69198;44.694;37.790;2024-02-26T04:43:46;11.75;44.84
75190;HTU21D;69198;44.694;37.790;2024-02-26T04:44:47;12.02;44.43
75190;HTU21D;69198;44.694;37.790;2024-02-26T04:45:48;12.30;43.96
75190;HTU21D;69198;44.694;37.790;2024-02-26T04:46:49;12.59;43.62
75190;HTU21D;69198;44.694;37.790;2024-02-26T04:47:50;12.82;42.92
75190;HTU21D;69198;44.694;37.790;2024-02-26T04:48:52;13.04;42.53
75190;HTU21D;69198;44.694;37.790;2024-02-26T04:49:56;13.24;42.20
75190;HTU21D;69198;44.694;37.790;2024-02-26T04:50:57;13.38;41.90
75190;HTU21D;69198;44.694;37.790;2024-02-26T04:51:58;13.52;41.78
75190;HTU21D;69198;44.694;37.790;2024-02-26T04:52:59;13.69;41.51
75190;HTU21D;69198;44.694;37.790;2024-02-26T04:54:00;13.83;41.19
75190;HTU21D;69198;44.694;37.790;2024-02-26T04:55:02;13.95;40.98
75190;HTU21D;69198;44.694;37.790;2024-02-26T04:56:03;14.13;40.61
75190;HTU21D;69198;44.694;37.790;2024-02-26T04:57:05;14.35;40.36
75190;HTU21D;69198;44.694;37.790;2024-02-26T04:58:06;14.58;40.04
75190;HTU21D;69198;44.694;37.790;2024-02-26T04:59:07;14.81;39.65
75190;HTU21D;69198;44.694;37.790;2024-02-26T05:00:08;15.04;39.08
75190;HTU21D;69198;44.694;37.790;2024-02-26T05:01:10;15.25;38.69
75190;HTU21D;69198;44.694;37.790;2024-02-26T05:02:12;15.41;38.33
75190;HTU21D;69198;44.694;37.790;2024-02-26T05:03:13;15.58;37.87
75190;HTU21D;69198;44.694;37.790;2024-02-26T05:04:16;15.73;37.63
75190;HTU21D;69198;44.694;37.790;2024-02-26T05:05:17;15.86;37.21
75190;HTU21D;69198;44.694;37.790;2024-02-26T05:06:19;15.99;36.93
75190;HTU21D;69198;44.694;37.790;2024-02-26T05:07:20;16.11;36.58
75190;HTU21D;69198;44.694;37.790;2024-02-26T05:08:21;16.24;36.29
75190;HTU21D;69198;44.694;37.790;2024-02-26T05:09:22;16.33;36.08
75190;HTU21D;69198;44.694;37.790;2024-02-26T05:10:23;16.48;35.92
75190;HTU21D;69198;44.694;37.790;2024-02-26T05:11:24;16.66;35.59
75190;HTU21D;69198;44.694;37.790;2024-02-26T05:12:25;16.82;35.23
75190;HTU21D;69198;44.694;37.790;2024-02-26T05:13:26;16.94;35.02
75190;HTU21D;69198;44.694;37.790;2024-02-26T05:14:27;17.09;34.83
75190;HTU21D;69198;44.694;37.790;2024-02-26T05:15:28;17.21;34.46
75190;HTU21D;69198;44.694;37.790;2024-02-26T05:16:29;17.32;34.31
75190;HTU21D;69198;44.694;37.790;2024-02-26T05:17:31;17.43;34.05
75190;HTU21D;69198;44.694;37.790;2024-02-26T05:18:32;17.52;33.76
75190;HTU21D;69198;44.694;37.790;2024-02-26T05:19:33;17.63;33.42
75190;HTU21D;69198;44.694;37.790;2024-02-26T05:20:34;17.73;33.38
75190;HTU21D;69198;44.694;37.790;2024-02-26T05:21:36;17.82;33.12
75190;HTU21D;69198;44.694;37.790;2024-02-26T05:22:37;17.90;32.88
75190;HTU21D;69198;44.694;37.790;2024-02-26T05:23:38;17.98;32.63
75190;HTU21D;69198;44.694;37.790;2024-02-26T05:24:40;18.00;32.31
75190;HTU21D;69198;44.694;37.790;2024-02-26T05:25:41;18.03;32.16
75190;HTU21D;69198;44.694;37.790;2024-02-26T05:26:43;18.03;31.94
75190;HTU21D;69198;44.694;37.790;2024-02-26T05:27:44;18.05;31.90
75190;HTU21D;69198;44.694;37.790;2024-02-26T05:28:45;18.12;31.77
75190;HTU21D;69198;44.694;37.790;2024-02-26T05:29:47;18.23;31.61
75190;HTU21D;69198;44.694;37.790;2024-02-26T05:30:48;18.33;31.46
75190;HTU21D;69198;44.694;37.790;2024-02-26T05:31:49;18.44;31.25
75190;HTU21D;69198;44.694;37.790;2024-02-26T05:32:50;18.49;30.89
75190;HTU21D;69198;44.694;37.790;2024-02-26T05:33:51;18.50;30.89
75190;HTU21D;69198;44.694;37.790;2024-02-26T05:34:52;18.54;30.81
75190;HTU21D;69198;44.694;37.790;2024-02-26T05:35:53;18.59;30.58
75190;HTU21D;69198;44.694;37.790;2024-02-26T05:36:54;18.63;30.48
75190;HTU21D;69198;44.694;37.790;2024-02-26T05:37:56;18.66;30.40
75190;HTU21D;69198;44.694;37.790;2024-02-26T05:38:57;18.70;30.19
75190;HTU21D;69198;44.694;37.790;2024-02-26T05:39:59;18.77;30.04
75190;HTU21D;69198;44.694;37.790;2024-02-26T05:41:00;18.83;29.88
75190;HTU21D;69198;44.694;37.790;2024-02-26T05:42:01;18.91;29.71
75190;HTU21D;69198;44.694;37.790;2024-02-26T05:43:02;18.98;29.71
75190;HTU21D;69198;44.694;37.790;2024-02-26T05:44:03;19.09;29.52
75190;HTU21D;69198;44.694;37.790;2024-02-26T05:45:05;19.20;29.42
75190;HTU21D;69198;44.694;37.790;2024-02-26T05:46:07;19.27;29.17
75190;HTU21D;69198;44.694;37.790;2024-02-26T05:47:08;19.32;29.06
75190;HTU21D;69198;44.694;37.790;2024-02-26T05:48:09;19.37;28.84
75190;HTU21D;69198;44.694;37.790;2024-02-26T05:49:10;19.42;28.80
75190;HTU21D;69198;44.694;37.790;2024-02-26T05:50:11;19.51;28.53
75190;HTU21D;69198;44.694;37.790;2024-02-26T05:51:13;19.55;28.45
75190;HTU21D;69198;44.694;37.790;2024-02-26T05:52:14;19.63;28.24
75190;HTU21D;69198;44.694;37.790;2024-02-26T05:53:15;19.68;27.96
75190;HTU21D;69198;44.694;37.790;2024-02-26T05:54:17;19.72;27.78
75190;HTU21D;69198;44.694;37.790;2024-02-26T05:55:18;19.75;27.69
75190;HTU21D;69198;44.694;37.790;2024-02-26T05:56:20;19.79;27.57
75190;HTU21D;69198;44.694;37.790;2024-02-26T05:57:21;19.81;27.62
75190;HTU21D;69198;44.694;37.790;2024-02-26T05:58:22;19.85;27.62
75190;HTU21D;69198;44.694;37.790;2024-02-26T05:59:23;19.85;27.29
75190;HTU21D;69198;44.694;37.790;2024-02-26T06:00:24;19.80;27.30
75190;HTU21D;69198;44.694;37.790;2024-02-26T06:01:25;19.77;27.31
75190;HTU21D;69198;44.694;37.790;2024-02-26T06:02:27;19.75;27.20
75190;HTU21D;69198;44.694;37.790;2024-02-26T06:03:28;19.75;27.20
75190;HTU21D;69198;44.694;37.790;2024-02-26T06:04:29;19.76;27.16
75190;HTU21D;69198;44.694;37.790;2024-02-26T06:05:30;19.82;27.08
75190;HTU21D;69198;44.694;37.790;2024-02-26T06:06:31;19.84;27.04
75190;HTU21D;69198;44.694;37.790;2024-02-26T06:07:32;19.89;26.85
75190;HTU21D;69198;44.694;37.790;2024-02-26T06:08:33;19.94;26.82
75190;HTU21D;69198;44.694;37.790;2024-02-26T06:09:34;19.96;26.66
75190;HTU21D;69198;44.694;37.790;2024-02-26T06:10:35;19.99;26.67
75190;HTU21D;69198;44.694;37.790;2024-02-26T06:11:37;20.04;26.70
75190;HTU21D;69198;44.694;37.790;2024-02-26T06:12:38;20.12;26.54
75190;HTU21D;69198;44.694;37.790;2024-02-26T06:13:39;20.13;26.20
75190;HTU21D;69198;44.694;37.790;2024-02-26T06:14:42;20.07;26.10
75190;HTU21D;69198;44.694;37.790;2024-02-26T06:15:43;20.05;26.26
75190;HTU21D;69198;44.694;37.790;2024-02-26T06:16:44;20.12;26.24
75190;HTU21D;69198;44.694;37.790;2024-02-26T06:17:45;20.18;26.23
75190;HTU21D;69198;44.694;37.790;2024-02-26T06:18:46;20.26;26.10
75190;HTU21D;69198;44.694;37.790;2024-02-26T06:19:47;20.32;26.01
75190;HTU21D;69198;44.694;37.790;2024-02-26T06:20:48;20.44;26.06